Terminal Aerodrome Forecast
Issued by NWS

Home | Current Version | Previous Version | Text Only | Print | Product List | Glossary On
Versions: 1 2 3 4 5 6 7 8 9 10 11 12 13 14
000
FTAK31 PAFA 131140
TAFAGA
TAF
PAGA 131140Z 1312/1412 11014KT P6SM -RA SCT035 BKN045 OVC110
     FM131500 09015KT 6SM -FZRASN BR BKN025 OVC035
     FM131800 10015G25KT 4SM -FZRASN BKN015 OVC025
     FM140000 11015KT 6SM -RASN BR OVC015
      AMD NOT SKED=

USA.gov is the U.S. government's official web portal to all federal, state and local government web resources and services.